Time;durP1;ratioP1;P1;durP2;ratioP2;P2;SDS_P1;SDS_P2;PMS_P1;PMS_P2;Temp;Humidity;BMP_temperature;BMP_pressure;BME280_temperature;BME280_humidity;BME280_pressure;Samples;Min_cycle;Max_cycle;Signal;HPM_P1;HPM_P2
2021/08/10 00:02:11;;;;;;;5.67;3.17;;;16.10;99.90;;;;;;6105850;23;20444;-83
2021/08/10 00:04:38;;;;;;;3.90;3.57;;;16.10;99.90;;;;;;6109605;23;20776;-83
2021/08/10 00:07:04;;;;;;;3.90;2.83;;;16.10;99.90;;;;;;6112021;23;20417;-83
2021/08/10 00:09:31;;;;;;;3.27;3.00;;;16.10;99.90;;;;;;6113433;23;20418;-83
2021/08/10 00:11:58;;;;;;;4.07;2.40;;;16.10;99.90;;;;;;6110558;23;20445;-84
2021/08/10 00:14:26;;;;;;;3.33;2.77;;;16.10;99.90;;;;;;6105768;23;20429;-83
2021/08/10 00:16:54;;;;;;;3.17;2.60;;;16.10;99.90;;;;;;6105680;23;20415;-84
2021/08/10 00:19:21;;;;;;;4.83;3.90;;;16.10;99.90;;;;;;6105563;23;20420;-83
2021/08/10 00:21:48;;;;;;;5.00;3.10;;;16.10;99.90;;;;;;6105061;23;20413;-83
2021/08/10 00:24:14;;;;;;;3.20;3.00;;;16.10;99.90;;;;;;6105805;23;20445;-84
2021/08/10 00:26:41;;;;;;;3.27;2.80;;;16.10;99.90;;;;;;6105747;23;20412;-83
2021/08/10 00:29:08;;;;;;;3.90;2.73;;;16.10;99.90;;;;;;6105803;23;20419;-84
2021/08/10 00:31:35;;;;;;;3.83;3.03;;;16.00;99.90;;;;;;6104357;23;20445;-84
2021/08/10 00:34:03;;;;;;;2.83;2.60;;;16.00;99.90;;;;;;6104396;23;20445;-83
2021/08/10 00:36:30;;;;;;;4.50;2.77;;;16.00;99.90;;;;;;6105158;23;20409;-83
2021/08/10 00:38:56;;;;;;;3.80;3.17;;;16.00;99.90;;;;;;6104773;23;20746;-84
2021/08/10 00:41:23;;;;;;;3.37;3.00;;;16.00;99.90;;;;;;6104233;23;21012;-83
2021/08/10 00:43:50;;;;;;;3.20;2.93;;;16.00;99.90;;;;;;6104293;23;20440;-83
2021/08/10 00:46:17;;;;;;;2.90;2.70;;;16.00;99.90;;;;;;6104497;23;20419;-84
2021/08/10 00:48:44;;;;;;;3.53;2.47;;;15.90;99.90;;;;;;6104742;23;20413;-83
2021/08/10 00:51:13;;;;;;;5.00;2.60;;;16.00;99.90;;;;;;6105386;23;20450;-83
2021/08/10 00:53:41;;;;;;;4.47;3.20;;;15.90;99.90;;;;;;6104125;23;20435;-84
2021/08/10 00:56:09;;;;;;;3.37;3.07;;;15.90;99.90;;;;;;6105216;23;20412;-83
2021/08/10 00:58:37;;;;;;;4.00;3.70;;;15.90;99.90;;;;;;6104924;23;20528;-83
2021/08/10 01:01:04;;;;;;;3.57;3.27;;;15.90;99.90;;;;;;6104283;23;20422;-83
2021/08/10 01:03:31;;;;;;;4.87;3.90;;;15.90;99.90;;;;;;6104235;23;20427;-83
2021/08/10 01:05:58;;;;;;;5.20;4.70;;;15.90;99.90;;;;;;6104605;23;20414;-83
2021/08/10 01:08:46;;;;;;;7.50;4.83;;;15.90;99.90;;;;;;6104965;23;20888;-84
2021/08/10 01:11:19;;;;;;;4.03;3.60;;;15.90;99.90;;;;;;6104659;23;20405;-84
2021/08/10 01:13:50;;;;;;;3.77;3.57;;;15.80;99.90;;;;;;6115694;23;20431;-83
2021/08/10 01:16:23;;;;;;;3.43;3.10;;;15.80;99.90;;;;;;6115874;23;20397;-84
2021/08/10 01:18:57;;;;;;;3.10;2.90;;;15.70;99.90;;;;;;6106595;23;20405;-84
2021/08/10 01:21:29;;;;;;;3.23;2.93;;;15.70;99.90;;;;;;6104359;23;20399;-84
2021/08/10 01:24:06;;;;;;;3.30;3.00;;;15.70;99.90;;;;;;6104771;23;20426;-84
2021/08/10 01:26:54;;;;;;;3.50;3.20;;;15.70;99.90;;;;;;6105061;23;20721;-84
2021/08/10 01:29:25;;;;;;;2.97;2.73;;;15.70;99.90;;;;;;6104481;23;20406;-84
2021/08/10 01:31:54;;;;;;;3.60;3.20;;;15.70;99.90;;;;;;6103683;23;20431;-84
2021/08/10 01:34:25;;;;;;;3.30;3.00;;;15.60;99.90;;;;;;6103565;23;20482;-83
2021/08/10 01:36:54;;;;;;;4.03;3.23;;;15.60;99.90;;;;;;6104342;23;20393;-84
2021/08/10 01:39:22;;;;;;;3.77;3.47;;;15.60;99.90;;;;;;6105076;23;20476;-83
2021/08/10 01:41:51;;;;;;;3.53;3.20;;;15.60;99.90;;;;;;6104365;23;20420;-83
2021/08/10 01:44:19;;;;;;;5.43;3.93;;;15.50;99.90;;;;;;6104284;23;20432;-83
2021/08/10 01:46:47;;;;;;;4.10;3.77;;;15.50;99.90;;;;;;6104430;23;20420;-84
2021/08/10 01:49:16;;;;;;;3.40;3.10;;;15.50;99.90;;;;;;6103817;23;20422;-83
2021/08/10 01:51:44;;;;;;;4.30;3.40;;;15.60;99.90;;;;;;6104106;23;20451;-84
2021/08/10 01:54:13;;;;;;;4.27;3.70;;;15.60;99.90;;;;;;6104239;23;20441;-84
2021/08/10 01:56:40;;;;;;;4.03;3.63;;;15.60;99.90;;;;;;6103955;23;20472;-83
2021/08/10 01:59:08;;;;;;;3.40;3.10;;;15.50;99.90;;;;;;6103372;23;20410;-84
2021/08/10 02:01:36;;;;;;;4.27;3.87;;;15.50;99.90;;;;;;6103798;23;20416;-83
2021/08/10 02:04:04;;;;;;;4.37;4.07;;;15.40;99.90;;;;;;6103331;23;20940;-83
2021/08/10 02:06:33;;;;;;;4.60;3.87;;;15.40;99.90;;;;;;6105848;23;20420;-84
2021/08/10 02:09:01;;;;;;;4.73;4.33;;;15.40;99.90;;;;;;6106070;23;20417;-83
2021/08/10 02:11:30;;;;;;;4.17;3.80;;;15.40;99.90;;;;;;6105257;23;20413;-84
2021/08/10 02:13:58;;;;;;;3.23;3.03;;;15.40;99.90;;;;;;6106349;23;20428;-83
2021/08/10 02:16:27;;;;;;;3.47;3.20;;;15.40;99.90;;;;;;6106022;23;20413;-84
2021/08/10 02:18:54;;;;;;;5.50;3.63;;;15.40;99.90;;;;;;6106660;23;20426;-84
2021/08/10 02:21:28;;;;;;;4.10;3.80;;;15.40;99.90;;;;;;6105373;23;20424;-83
2021/08/10 02:24:02;;;;;;;4.40;3.60;;;15.40;99.90;;;;;;6105594;23;20445;-83
2021/08/10 02:26:30;;;;;;;3.63;3.33;;;15.40;99.90;;;;;;6105569;23;20401;-84
2021/08/10 02:28:58;;;;;;;3.33;3.10;;;15.50;99.90;;;;;;6105966;23;20472;-83
2021/08/10 02:31:27;;;;;;;3.17;2.87;;;15.40;99.90;;;;;;6105995;23;20438;-84
2021/08/10 02:33:55;;;;;;;3.23;2.93;;;15.40;99.90;;;;;;6106022;23;20492;-83
2021/08/10 02:36:23;;;;;;;3.40;3.10;;;15.40;99.90;;;;;;6097499;23;20416;-83
2021/08/10 02:38:51;;;;;;;3.30;3.00;;;15.30;99.90;;;;;;6097598;23;20419;-83
2021/08/10 02:41:20;;;;;;;3.43;3.13;;;15.30;99.90;;;;;;6097484;23;20424;-83
2021/08/10 02:43:47;;;;;;;3.13;2.83;;;15.20;99.90;;;;;;6094509;23;20415;-83
2021/08/10 02:46:14;;;;;;;4.30;3.90;;;15.20;99.90;;;;;;6068814;23;20450;-83
2021/08/10 02:48:40;;;;;;;3.77;3.00;;;15.20;99.90;;;;;;6068613;23;20735;-83
2021/08/10 02:51:07;;;;;;;3.97;3.63;;;15.20;99.90;;;;;;6067428;23;20412;-83
2021/08/10 02:53:34;;;;;;;4.73;4.33;;;15.20;99.90;;;;;;6066893;23;20445;-83
2021/08/10 02:56:10;;;;;;;4.07;3.63;;;15.10;99.90;;;;;;6074799;23;20402;-83
2021/08/10 02:58:47;;;;;;;3.73;3.43;;;15.10;99.90;;;;;;6072411;23;20397;-84
2021/08/10 03:01:17;;;;;;;4.70;3.90;;;15.10;99.90;;;;;;6071743;23;20722;-83
2021/08/10 03:03:47;;;;;;;4.57;4.20;;;15.10;99.90;;;;;;6070730;23;20845;-83
2021/08/10 03:06:14;;;;;;;5.00;4.33;;;15.10;99.90;;;;;;6084425;23;20428;-81
2021/08/10 03:08:47;;;;;;;3.53;3.23;;;15.00;99.90;;;;;;6088985;23;20409;-82
2021/08/10 03:11:15;;;;;;;8.20;4.40;;;15.00;99.90;;;;;;6071176;23;20424;-83
2021/08/10 03:13:46;;;;;;;3.70;3.40;;;15.00;99.90;;;;;;6069497;23;20445;-82
2021/08/10 03:16:15;;;;;;;4.40;4.10;;;14.90;99.90;;;;;;6089305;23;20725;-83
2021/08/10 03:18:45;;;;;;;3.33;3.13;;;14.90;99.90;;;;;;6085525;23;20912;-83
2021/08/10 03:21:12;;;;;;;3.20;2.93;;;14.90;99.90;;;;;;6069582;23;20403;-83
2021/08/10 03:23:41;;;;;;;3.43;3.23;;;14.90;99.90;;;;;;6068561;23;20405;-82
2021/08/10 03:26:10;;;;;;;5.77;3.63;;;14.90;99.90;;;;;;6069480;23;20798;-83
2021/08/10 03:28:41;;;;;;;4.70;3.93;;;14.80;99.90;;;;;;6068998;23;20414;-83
2021/08/10 03:31:10;;;;;;;3.97;3.63;;;14.80;99.90;;;;;;6068995;23;20457;-82
2021/08/10 03:33:37;;;;;;;4.97;4.37;;;14.80;99.90;;;;;;6068178;23;20449;-83
2021/08/10 03:36:05;;;;;;;4.60;3.87;;;14.80;99.90;;;;;;6067892;23;20431;-82
2021/08/10 03:38:34;;;;;;;6.97;4.60;;;14.80;99.90;;;;;;6068239;23;20798;-83
2021/08/10 03:41:01;;;;;;;4.53;3.70;;;14.70;99.90;;;;;;6067985;23;20421;-83
2021/08/10 03:43:29;;;;;;;4.50;4.10;;;14.70;99.90;;;;;;6067564;23;20418;-83
2021/08/10 03:45:56;;;;;;;5.60;3.60;;;14.70;99.90;;;;;;6067730;23;20429;-83
2021/08/10 03:48:25;;;;;;;3.60;3.30;;;14.70;99.90;;;;;;6067955;23;20420;-83
2021/08/10 03:50:54;;;;;;;4.83;3.97;;;14.70;99.90;;;;;;6068099;23;20719;-84
2021/08/10 03:53:21;;;;;;;4.37;3.97;;;14.70;99.90;;;;;;6067949;23;20449;-83
2021/08/10 03:55:50;;;;;;;3.17;2.97;;;14.70;99.90;;;;;;6067399;23;20441;-83
2021/08/10 03:58:18;;;;;;;3.90;3.60;;;14.70;99.90;;;;;;6068414;23;20421;-83
2021/08/10 04:00:45;;;;;;;4.10;3.77;;;14.60;99.90;;;;;;6068040;23;20422;-84
2021/08/10 04:03:12;;;;;;;5.63;3.70;;;14.60;99.90;;;;;;6067564;23;20828;-83
2021/08/10 04:05:44;;;;;;;5.47;3.67;;;14.60;99.90;;;;;;6067482;23;20440;-83
2021/08/10 04:08:11;;;;;;;3.80;3.47;;;14.60;99.90;;;;;;6067696;23;20397;-83
2021/08/10 04:10:43;;;;;;;6.90;5.33;;;14.60;99.90;;;;;;6067884;23;20402;-82
2021/08/10 04:13:10;;;;;;;4.20;3.83;;;14.60;99.90;;;;;;6067552;23;20449;-83
2021/08/10 04:15:41;;;;;;;5.20;4.40;;;14.60;99.90;;;;;;6068063;23;20488;-83
2021/08/10 04:18:09;;;;;;;5.97;4.80;;;14.60;99.90;;;;;;6068117;23;20393;-83
2021/08/10 04:20:36;;;;;;;5.43;4.30;;;14.60;99.90;;;;;;6067827;23;20869;-83
2021/08/10 04:23:05;;;;;;;4.50;3.87;;;14.60;99.90;;;;;;6067491;23;20406;-83
2021/08/10 04:25:32;;;;;;;4.57;4.27;;;14.60;99.90;;;;;;6067937;23;20457;-83
2021/08/10 04:27:58;;;;;;;4.60;4.10;;;14.70;99.90;;;;;;6067554;23;20457;-82
2021/08/10 04:30:25;;;;;;;3.80;3.50;;;14.70;99.90;;;;;;6067962;23;20413;-84
2021/08/10 04:32:52;;;;;;;4.57;4.17;;;14.80;99.90;;;;;;6067247;23;20952;-83
2021/08/10 04:35:19;;;;;;;4.47;4.07;;;14.90;99.90;;;;;;6067385;23;20445;-83
2021/08/10 04:37:45;;;;;;;5.57;4.20;;;14.90;99.90;;;;;;6067952;23;20518;-83
2021/08/10 04:40:14;;;;;;;8.20;4.70;;;15.00;99.90;;;;;;6067676;23;20413;-83
2021/08/10 04:42:41;;;;;;;5.77;3.83;;;15.10;99.90;;;;;;6067259;23;20412;-82
2021/08/10 04:45:09;;;;;;;6.43;4.73;;;15.10;99.90;;;;;;6068051;23;20831;-83
2021/08/10 04:47:35;;;;;;;4.60;3.83;;;15.20;99.90;;;;;;6067278;23;20409;-83
2021/08/10 04:50:02;;;;;;;6.10;4.47;;;15.20;99.90;;;;;;6067658;23;20424;-83
2021/08/10 04:52:29;;;;;;;4.50;3.80;;;15.20;99.90;;;;;;6066780;23;20690;-83
2021/08/10 04:54:57;;;;;;;4.33;4.00;;;15.30;99.90;;;;;;6067145;23;20437;-83
2021/08/10 04:57:25;;;;;;;4.13;3.80;;;15.30;99.90;;;;;;6067494;23;20479;-83
2021/08/10 04:59:52;;;;;;;4.27;3.87;;;15.50;99.90;;;;;;6067701;23;20390;-83
2021/08/10 05:02:19;;;;;;;4.70;3.80;;;15.60;99.90;;;;;;6067281;23;20747;-83
2021/08/10 05:04:46;;;;;;;5.17;4.67;;;15.70;99.90;;;;;;6066942;23;21032;-83
2021/08/10 05:07:13;;;;;;;5.53;4.30;;;15.80;99.90;;;;;;6067451;23;20437;-82
2021/08/10 05:09:42;;;;;;;4.37;3.77;;;15.90;99.90;;;;;;6067362;23;20425;-83
2021/08/10 05:12:09;;;;;;;4.57;4.17;;;16.00;99.90;;;;;;6066533;23;20452;-84
2021/08/10 05:14:37;;;;;;;5.87;3.83;;;16.00;99.90;;;;;;6067200;23;20451;-83
2021/08/10 05:17:04;;;;;;;5.47;3.70;;;16.10;99.90;;;;;;6067287;23;20418;-83
2021/08/10 05:19:31;;;;;;;4.97;4.50;;;16.20;99.90;;;;;;6067153;23;20429;-83
2021/08/10 05:21:58;;;;;;;5.93;3.30;;;16.30;99.90;;;;;;6066667;23;20496;-83
2021/08/10 05:24:25;;;;;;;5.03;4.40;;;16.40;99.90;;;;;;6066743;23;20441;-83
2021/08/10 05:26:52;;;;;;;5.50;3.53;;;16.50;99.90;;;;;;6067603;23;20414;-83
2021/08/10 05:29:18;;;;;;;4.37;4.07;;;16.50;99.90;;;;;;6067332;23;20415;-84
2021/08/10 05:31:46;;;;;;;3.93;3.63;;;16.60;99.90;;;;;;6067074;23;20421;-83
2021/08/10 05:34:13;;;;;;;3.80;3.50;;;16.60;99.90;;;;;;6066843;23;20974;-83
2021/08/10 05:36:40;;;;;;;4.07;3.57;;;16.70;99.90;;;;;;6067027;23;20402;-83
2021/08/10 05:39:07;;;;;;;4.83;3.70;;;16.80;99.90;;;;;;6067507;23;20414;-83
2021/08/10 05:41:33;;;;;;;3.50;3.30;;;16.80;99.90;;;;;;6068912;23;20448;-83
2021/08/10 05:44:00;;;;;;;3.50;3.07;;;16.90;99.90;;;;;;6069033;23;20434;-83
2021/08/10 05:46:27;;;;;;;5.30;3.60;;;16.90;99.90;;;;;;6069452;23;20419;-83
2021/08/10 05:48:58;;;;;;;7.20;3.40;;;17.00;99.90;;;;;;6070670;23;20422;-84
2021/08/10 05:51:27;;;;;;;3.23;2.93;;;17.10;99.90;;;;;;6069190;23;20433;-83
2021/08/10 05:53:54;;;;;;;4.83;4.13;;;17.20;99.90;;;;;;6069030;23;20772;-83
2021/08/10 05:56:21;;;;;;;4.20;3.80;;;17.30;99.90;;;;;;6069060;23;20423;-83
2021/08/10 05:58:48;;;;;;;3.30;3.00;;;17.40;99.90;;;;;;6069168;23;20422;-84
2021/08/10 06:01:14;;;;;;;5.20;3.30;;;17.50;99.90;;;;;;6069386;23;20749;-83
2021/08/10 06:03:41;;;;;;;3.23;2.93;;;17.60;99.90;;;;;;6068425;23;20404;-83
2021/08/10 06:06:09;;;;;;;4.80;2.90;;;17.70;99.90;;;;;;6069024;23;20415;-84
2021/08/10 06:08:36;;;;;;;4.83;3.20;;;17.80;99.90;;;;;;6070639;23;20414;-83
2021/08/10 06:11:03;;;;;;;4.73;3.60;;;17.80;99.90;;;;;;6068641;23;20941;-83
2021/08/10 06:13:30;;;;;;;3.73;3.43;;;17.90;99.90;;;;;;6068567;23;20457;-83
2021/08/10 06:15:56;;;;;;;3.03;2.83;;;17.90;99.90;;;;;;6068942;23;20437;-83
2021/08/10 06:18:23;;;;;;;3.37;3.10;;;18.00;99.90;;;;;;6068894;23;20744;-84
2021/08/10 06:20:50;;;;;;;4.83;3.40;;;18.10;99.90;;;;;;6069421;23;20416;-83
2021/08/10 06:23:21;;;;;;;3.00;2.80;;;18.20;99.90;;;;;;6068614;23;20409;-84
2021/08/10 06:25:47;;;;;;;3.77;3.03;;;18.20;99.90;;;;;;6068956;23;20444;-83
2021/08/10 06:28:14;;;;;;;5.73;3.60;;;18.30;99.90;;;;;;6069040;23;20426;-84
2021/08/10 06:30:41;;;;;;;3.10;2.87;;;18.30;99.90;;;;;;6069127;23;20420;-83
2021/08/10 06:33:08;;;;;;;6.40;3.10;;;18.30;99.90;;;;;;6069075;23;20455;-84
2021/08/10 06:35:34;;;;;;;2.80;2.60;;;18.30;99.90;;;;;;6068669;23;20450;-83
2021/08/10 06:38:01;;;;;;;3.60;3.30;;;18.40;99.90;;;;;;6068939;23;20412;-83
2021/08/10 06:40:29;;;;;;;4.50;3.17;;;18.40;99.90;;;;;;6068993;23;20422;-83
2021/08/10 06:42:56;;;;;;;6.00;2.97;;;18.50;99.90;;;;;;6068276;23;20900;-83
2021/08/10 06:45:23;;;;;;;6.07;4.00;;;18.70;99.90;;;;;;6068920;23;20441;-83
2021/08/10 06:47:51;;;;;;;4.50;3.13;;;18.80;99.90;;;;;;6068538;23;20943;-83
2021/08/10 06:50:18;;;;;;;4.10;3.80;;;19.00;99.90;;;;;;6072504;23;20939;-84
2021/08/10 06:52:46;;;;;;;3.00;2.70;;;19.10;99.90;;;;;;6067966;23;20421;-84
2021/08/10 06:55:13;;;;;;;4.57;4.00;;;19.30;99.90;;;;;;6068805;23;20533;-82
2021/08/10 06:57:41;;;;;;;3.53;2.87;;;19.40;99.90;;;;;;6082378;23;20415;-83
2021/08/10 07:00:09;;;;;;;5.93;3.00;;;19.60;99.90;;;;;;6090207;23;20412;-83
2021/08/10 07:02:36;;;;;;;2.57;2.37;;;19.70;99.90;;;;;;6071852;23;20412;-84
2021/08/10 07:05:03;;;;;;;3.20;2.90;;;19.80;99.90;;;;;;6069327;23;20438;-84
2021/08/10 07:07:30;;;;;;;2.83;2.63;;;19.90;99.90;;;;;;6087164;23;20447;-83
2021/08/10 07:09:57;;;;;;;2.80;2.50;;;20.00;99.90;;;;;;6088378;23;20414;-83
2021/08/10 07:12:24;;;;;;;3.13;2.73;;;20.20;99.90;;;;;;6069718;23;20413;-83
2021/08/10 07:14:52;;;;;;;2.50;2.30;;;20.30;99.90;;;;;;6069116;23;20455;-83
2021/08/10 07:17:18;;;;;;;3.83;2.80;;;20.40;99.90;;;;;;6077047;23;20418;-83
2021/08/10 07:19:45;;;;;;;2.87;2.67;;;20.50;99.90;;;;;;6087811;23;20413;-83
2021/08/10 07:22:12;;;;;;;3.23;3.03;;;20.60;99.90;;;;;;6076923;23;20420;-83
2021/08/10 07:24:39;;;;;;;3.20;2.60;;;20.60;99.60;;;;;;6068854;23;20430;-84
2021/08/10 07:27:06;;;;;;;2.73;2.53;;;20.70;99.50;;;;;;6069398;23;20414;-84
2021/08/10 07:29:33;;;;;;;2.10;1.90;;;20.80;99.40;;;;;;6068771;23;20421;-83
2021/08/10 07:32:01;;;;;;;3.47;3.07;;;20.80;99.50;;;;;;6068212;23;20418;-84
2021/08/10 07:34:28;;;;;;;2.90;2.70;;;20.90;99.60;;;;;;6067984;23;20460;-83
2021/08/10 07:36:57;;;;;;;2.20;2.07;;;20.90;99.60;;;;;;6068527;23;20436;-83
2021/08/10 07:39:24;;;;;;;2.97;2.67;;;21.00;99.60;;;;;;6068895;23;20417;-84
2021/08/10 07:41:50;;;;;;;5.03;3.13;;;21.00;99.50;;;;;;6068119;23;20417;-83
2021/08/10 07:44:17;;;;;;;2.90;2.60;;;21.10;99.30;;;;;;6068424;23;20433;-83
2021/08/10 07:46:44;;;;;;;3.10;2.90;;;21.10;99.20;;;;;;6068523;23;20494;-83
2021/08/10 07:49:12;;;;;;;4.17;2.70;;;21.20;99.40;;;;;;6068370;23;20421;-83
2021/08/10 07:51:39;;;;;;;4.30;3.37;;;21.20;99.70;;;;;;6068061;23;20426;-84
2021/08/10 07:54:06;;;;;;;5.03;3.37;;;21.30;99.90;;;;;;6068060;23;20453;-84
2021/08/10 07:56:33;;;;;;;4.20;3.80;;;21.30;99.90;;;;;;6068287;23;20418;-83
2021/08/10 07:58:59;;;;;;;3.70;3.10;;;21.40;99.90;;;;;;6067934;23;20950;-83
2021/08/10 08:01:26;;;;;;;2.73;2.50;;;21.50;99.60;;;;;;6068006;23;20421;-83
2021/08/10 08:03:53;;;;;;;3.27;2.97;;;21.50;99.30;;;;;;6068240;23;20737;-83
2021/08/10 08:06:21;;;;;;;2.63;2.43;;;21.50;99.00;;;;;;6068122;23;20418;-84
2021/08/10 08:08:48;;;;;;;3.90;3.53;;;21.60;99.30;;;;;;6068482;23;20415;-83
2021/08/10 08:11:14;;;;;;;3.60;3.30;;;21.40;99.30;;;;;;6068523;23;20410;-83
2021/08/10 08:13:41;;;;;;;3.30;3.00;;;21.40;99.50;;;;;;6067773;23;20964;-83
2021/08/10 08:16:08;;;;;;;4.20;2.57;;;21.40;99.60;;;;;;6070032;23;20426;-83
2021/08/10 08:18:35;;;;;;;4.83;4.20;;;21.40;99.80;;;;;;6072153;23;20410;-84
2021/08/10 08:21:01;;;;;;;3.47;3.17;;;21.40;99.90;;;;;;6068127;23;20409;-83
2021/08/10 08:23:29;;;;;;;2.90;2.50;;;21.40;99.70;;;;;;6067516;23;20415;-84
2021/08/10 08:25:56;;;;;;;3.07;2.77;;;21.50;99.60;;;;;;6068096;23;20443;-84
2021/08/10 08:28:23;;;;;;;3.47;3.17;;;21.50;99.30;;;;;;6068380;23;20416;-83
2021/08/10 08:30:50;;;;;;;2.80;2.43;;;21.60;99.80;;;;;;6068100;23;20420;-84
2021/08/10 08:33:17;;;;;;;3.70;3.40;;;21.70;99.90;;;;;;6067625;23;20746;-84
2021/08/10 08:55:15;;;;;;;;;;;;;;;;;;;;;
2021/08/10 10:37:32;;;;;;;2.93;2.37;;;25.10;86.90;;;;;;5865103;23;20433;-84
2021/08/10 10:40:01;;;;;;;3.00;2.67;;;25.20;88.40;;;;;;6058675;23;20193;-84
2021/08/10 10:42:29;;;;;;;4.93;2.63;;;25.30;88.20;;;;;;6110501;23;20446;-84
2021/08/10 10:44:56;;;;;;;2.93;2.47;;;25.50;87.40;;;;;;6110123;23;20413;-84
2021/08/10 10:47:38;;;;;;;2.40;2.20;;;25.80;86.50;;;;;;6109808;23;20503;-84
2021/08/10 10:50:16;;;;;;;5.23;2.37;;;26.00;86.20;;;;;;6110461;23;20414;-84
2021/08/10 11:11:49;;;;;;;2.47;2.37;;;26.80;83.20;;;;;;5784715;22;10313362;-84
2021/08/10 11:14:57;;;;;;;2.90;2.33;;;26.50;84.30;;;;;;6205880;23;20435;-87
2021/08/10 11:17:24;;;;;;;2.63;2.43;;;26.50;84.30;;;;;;6078834;23;20461;-85
2021/08/10 11:19:53;;;;;;;2.43;2.20;;;26.60;85.10;;;;;;6157441;23;20440;-86
2021/08/10 11:22:27;;;;;;;2.83;2.37;;;26.80;85.10;;;;;;6174095;23;20407;-85
